sensor_id;sensor_type;location;lat;lon;timestamp;pressure;altitude;pressure_sealevel;temperature
77418;BMP280;66490;51.484;0.026;2023-07-20T00:00:33;101513.50;;;17.15
77418;BMP280;66490;51.484;0.026;2023-07-20T00:03:17;101499.59;;;17.06
77418;BMP280;66490;51.484;0.026;2023-07-20T00:06:02;101503.50;;;17.01
77418;BMP280;66490;51.484;0.026;2023-07-20T00:08:48;101488.41;;;16.89
77418;BMP280;66490;51.484;0.026;2023-07-20T00:11:35;101491.19;;;16.86
77418;BMP280;66490;51.484;0.026;2023-07-20T00:14:20;101484.97;;;16.85
77418;BMP280;66490;51.484;0.026;2023-07-20T00:17:05;101498.88;;;16.98
77418;BMP280;66490;51.484;0.026;2023-07-20T00:19:49;101488.03;;;16.91
77418;BMP280;66490;51.484;0.026;2023-07-20T00:22:33;101505.84;;;16.99
77418;BMP280;66490;51.484;0.026;2023-07-20T00:25:18;101484.97;;;16.85
77418;BMP280;66490;51.484;0.026;2023-07-20T00:28:05;101492.09;;;16.72
77418;BMP280;66490;51.484;0.026;2023-07-20T00:30:49;101485.88;;;16.68
77418;BMP280;66490;51.484;0.026;2023-07-20T00:33:34;101481.66;;;16.60
77418;BMP280;66490;51.484;0.026;2023-07-20T00:36:18;101489.09;;;16.52
77418;BMP280;66490;51.484;0.026;2023-07-20T00:39:03;101463.19;;;16.34
77418;BMP280;66490;51.484;0.026;2023-07-20T00:41:47;101502.41;;;16.47
77418;BMP280;66490;51.484;0.026;2023-07-20T00:44:32;101470.66;;;16.15
77418;BMP280;66490;51.484;0.026;2023-07-20T00:47:16;101472.28;;;16.09
77418;BMP280;66490;51.484;0.026;2023-07-20T00:50:02;101491.72;;;16.11
77418;BMP280;66490;51.484;0.026;2023-07-20T00:52:46;101475.50;;;15.90
77418;BMP280;66490;51.484;0.026;2023-07-20T00:55:31;101484.03;;;15.92
77418;BMP280;66490;51.484;0.026;2023-07-20T00:58:15;101500.69;;;16.05
77418;BMP280;66490;51.484;0.026;2023-07-20T01:01:00;101499.19;;;16.00
77418;BMP280;66490;51.484;0.026;2023-07-20T01:03:44;101488.31;;;15.90
77418;BMP280;66490;51.484;0.026;2023-07-20T01:10:11;101477.88;;;15.81
77418;BMP280;66490;51.484;0.026;2023-07-20T01:12:57;101496.53;;;15.86
77418;BMP280;66490;51.484;0.026;2023-07-20T01:15:49;101478.66;;;15.82
77418;BMP280;66490;51.484;0.026;2023-07-20T01:18:34;101463.22;;;15.61
77418;BMP280;66490;51.484;0.026;2023-07-20T01:21:25;101453.91;;;15.48
77418;BMP280;66490;51.484;0.026;2023-07-20T01:30:57;101474.91;;;15.44
77418;BMP280;66490;51.484;0.026;2023-07-20T01:33:44;101473.34;;;15.35
77418;BMP280;66490;51.484;0.026;2023-07-20T01:36:30;101488.88;;;15.49
77418;BMP280;66490;51.484;0.026;2023-07-20T01:39:17;101473.34;;;15.39
77418;BMP280;66490;51.484;0.026;2023-07-20T01:42:02;101470.63;;;15.46
77418;BMP280;66490;51.484;0.026;2023-07-20T01:44:47;101483.81;;;15.55
77418;BMP280;66490;51.484;0.026;2023-07-20T01:47:30;101493.47;;;15.70
77418;BMP280;66490;51.484;0.026;2023-07-20T01:50:14;101503.13;;;15.85
77418;BMP280;66490;51.484;0.026;2023-07-20T01:52:58;101488.38;;;15.83
77418;BMP280;66490;51.484;0.026;2023-07-20T01:55:42;101475.53;;;15.83
77418;BMP280;66490;51.484;0.026;2023-07-20T01:58:26;101462.31;;;15.78
77418;BMP280;66490;51.484;0.026;2023-07-20T02:01:10;101503.03;;;16.06
77418;BMP280;66490;51.484;0.026;2023-07-20T02:03:54;101480.88;;;16.04
77418;BMP280;66490;51.484;0.026;2023-07-20T02:06:38;101490.16;;;16.10
77418;BMP280;66490;51.484;0.026;2023-07-20T02:09:22;101471.19;;;15.96
77418;BMP280;66490;51.484;0.026;2023-07-20T02:12:07;101463.03;;;15.93
77418;BMP280;66490;51.484;0.026;2023-07-20T02:14:52;101481.25;;;15.99
77418;BMP280;66490;51.484;0.026;2023-07-20T02:17:37;101466.16;;;15.91
77418;BMP280;66490;51.484;0.026;2023-07-20T02:20:24;101468.50;;;15.93
77418;BMP280;66490;51.484;0.026;2023-07-20T02:23:09;101475.44;;;16.01
77418;BMP280;66490;51.484;0.026;2023-07-20T02:25:53;101480.91;;;15.97
77418;BMP280;66490;51.484;0.026;2023-07-20T02:28:38;101467.75;;;15.85
77418;BMP280;66490;51.484;0.026;2023-07-20T02:31:22;101474.72;;;15.90
77418;BMP280;66490;51.484;0.026;2023-07-20T02:34:06;101480.16;;;15.93
77418;BMP280;66490;51.484;0.026;2023-07-20T02:36:51;101470.03;;;15.94
77418;BMP280;66490;51.484;0.026;2023-07-20T02:39:35;101486.34;;;16.04
77418;BMP280;66490;51.484;0.026;2023-07-20T02:42:19;101486.34;;;16.04
77418;BMP280;66490;51.484;0.026;2023-07-20T02:45:03;101459.53;;;15.92
77418;BMP280;66490;51.484;0.026;2023-07-20T02:47:48;101470.78;;;15.98
77418;BMP280;66490;51.484;0.026;2023-07-20T02:50:32;101492.56;;;16.01
77418;BMP280;66490;51.484;0.026;2023-07-20T02:53:16;101459.19;;;15.83
77418;BMP280;66490;51.484;0.026;2023-07-20T02:56:02;101455.34;;;15.77
77418;BMP280;66490;51.484;0.026;2023-07-20T02:58:46;101478.59;;;15.92
77418;BMP280;66490;51.484;0.026;2023-07-20T03:01:31;101465.78;;;15.89
77418;BMP280;66490;51.484;0.026;2023-07-20T03:04:15;101460.69;;;15.98
77418;BMP280;66490;51.484;0.026;2023-07-20T03:07:00;101480.03;;;16.11
77418;BMP280;66490;51.484;0.026;2023-07-20T03:09:44;101472.69;;;16.08
77418;BMP280;66490;51.484;0.026;2023-07-20T03:12:28;101466.84;;;16.09
77418;BMP280;66490;51.484;0.026;2023-07-20T03:15:12;101475.38;;;16.15
77418;BMP280;66490;51.484;0.026;2023-07-20T03:17:56;101463.34;;;16.05
77418;BMP280;66490;51.484;0.026;2023-07-20T03:20:42;101478.47;;;16.13
77418;BMP280;66490;51.484;0.026;2023-07-20T03:23:26;101479.34;;;16.03
77418;BMP280;66490;51.484;0.026;2023-07-20T03:26:11;101471.19;;;15.96
77418;BMP280;66490;51.484;0.026;2023-07-20T03:28:57;101475.50;;;15.90
77418;BMP280;66490;51.484;0.026;2023-07-20T03:31:42;101483.97;;;15.99
77418;BMP280;66490;51.484;0.026;2023-07-20T03:34:26;101491.78;;;15.97
77418;BMP280;66490;51.484;0.026;2023-07-20T03:37:10;101449.91;;;15.77
77418;BMP280;66490;51.484;0.026;2023-07-20T03:39:54;101482.16;;;15.82
77418;BMP280;66490;51.484;0.026;2023-07-20T03:42:39;101461.19;;;15.72
77418;BMP280;66490;51.484;0.026;2023-07-20T03:45:23;101472.44;;;15.74
77418;BMP280;66490;51.484;0.026;2023-07-20T03:48:07;101481.41;;;15.71
77418;BMP280;66490;51.484;0.026;2023-07-20T03:50:54;101465.53;;;15.52
77418;BMP280;66490;51.484;0.026;2023-07-20T03:53:38;101470.25;;;15.40
77418;BMP280;66490;51.484;0.026;2023-07-20T03:56:22;101498.97;;;15.49
77418;BMP280;66490;51.484;0.026;2023-07-20T03:59:07;101479.59;;;15.32
77418;BMP280;66490;51.484;0.026;2023-07-20T04:01:51;101486.19;;;15.31
77418;BMP280;66490;51.484;0.026;2023-07-20T04:04:34;101492.03;;;15.23
77418;BMP280;66490;51.484;0.026;2023-07-20T04:07:18;101486.59;;;15.12
77418;BMP280;66490;51.484;0.026;2023-07-20T04:10:03;101473.44;;;14.93
77418;BMP280;66490;51.484;0.026;2023-07-20T04:12:47;101476.53;;;14.88
77418;BMP280;66490;51.484;0.026;2023-07-20T04:15:31;101492.09;;;14.98
77418;BMP280;66490;51.484;0.026;2023-07-20T04:18:15;101477.69;;;14.83
77418;BMP280;66490;51.484;0.026;2023-07-20T04:21:00;101466.44;;;14.78
77418;BMP280;66490;51.484;0.026;2023-07-20T04:23:43;101488.94;;;14.89
77418;BMP280;66490;51.484;0.026;2023-07-20T04:26:27;101484.31;;;14.86
77418;BMP280;66490;51.484;0.026;2023-07-20T04:29:11;101488.19;;;14.85
77418;BMP280;66490;51.484;0.026;2023-07-20T04:31:56;101457.91;;;14.76
77418;BMP280;66490;51.484;0.026;2023-07-20T04:34:41;101482.72;;;14.95
77418;BMP280;66490;51.484;0.026;2023-07-20T04:37:26;101469.16;;;14.85
77418;BMP280;66490;51.484;0.026;2023-07-20T04:40:11;101477.31;;;14.92
77418;BMP280;66490;51.484;0.026;2023-07-20T04:42:55;101471.06;;;14.95
77418;BMP280;66490;51.484;0.026;2023-07-20T04:45:39;101488.56;;;15.01
77418;BMP280;66490;51.484;0.026;2023-07-20T04:48:23;101460.22;;;14.84
77418;BMP280;66490;51.484;0.026;2023-07-20T04:51:08;101492.81;;;15.06
77418;BMP280;66490;51.484;0.026;2023-07-20T04:53:52;101488.16;;;15.10
77418;BMP280;66490;51.484;0.026;2023-07-20T04:56:36;101475.00;;;14.97
77418;BMP280;66490;51.484;0.026;2023-07-20T04:59:20;101495.16;;;15.21
77418;BMP280;66490;51.484;0.026;2023-07-20T05:02:07;101492.03;;;15.26
77418;BMP280;66490;51.484;0.026;2023-07-20T05:04:53;101495.13;;;15.28
77418;BMP280;66490;51.484;0.026;2023-07-20T05:07:40;101473.78;;;15.16
77418;BMP280;66490;51.484;0.026;2023-07-20T05:10:25;101470.31;;;15.19
77418;BMP280;66490;51.484;0.026;2023-07-20T05:13:12;101486.56;;;15.33
77418;BMP280;66490;51.484;0.026;2023-07-20T05:15:56;101469.50;;;15.26
77418;BMP280;66490;51.484;0.026;2023-07-20T05:18:42;101485.00;;;15.36
77418;BMP280;66490;51.484;0.026;2023-07-20T05:21:27;101489.66;;;15.39
77418;BMP280;66490;51.484;0.026;2023-07-20T05:24:11;101467.94;;;15.28
77418;BMP280;66490;51.484;0.026;2023-07-20T05:26:56;101485.78;;;15.44
77418;BMP280;66490;51.484;0.026;2023-07-20T05:29:44;101450.09;;;15.27
77418;BMP280;66490;51.484;0.026;2023-07-20T05:32:28;101471.41;;;15.39
77418;BMP280;66490;51.484;0.026;2023-07-20T05:35:12;101481.06;;;15.51
77418;BMP280;66490;51.484;0.026;2023-07-20T05:37:57;101448.88;;;15.28
77418;BMP280;66490;51.484;0.026;2023-07-20T05:40:42;101488.88;;;15.60
77418;BMP280;66490;51.484;0.026;2023-07-20T05:43:29;101478.34;;;15.62
77418;BMP280;66490;51.484;0.026;2023-07-20T05:46:14;101454.25;;;15.57
77418;BMP280;66490;51.484;0.026;2023-07-20T05:48:58;101479.41;;;15.78
77418;BMP280;66490;51.484;0.026;2023-07-20T05:51:41;101484.09;;;15.85
77418;BMP280;66490;51.484;0.026;2023-07-20T05:54:25;101474.72;;;15.90
77418;BMP280;66490;51.484;0.026;2023-07-20T05:57:10;101486.34;;;15.97
77418;BMP280;66490;51.484;0.026;2023-07-20T05:59:54;101492.53;;;16.08
77418;BMP280;66490;51.484;0.026;2023-07-20T06:02:39;101494.09;;;16.09
77418;BMP280;66490;51.484;0.026;2023-07-20T06:05:23;101483.94;;;16.13
77418;BMP280;66490;51.484;0.026;2023-07-20T06:08:08;101499.41;;;16.31
77418;BMP280;66490;51.484;0.026;2023-07-20T06:10:52;101473.34;;;16.30
77418;BMP280;66490;51.484;0.026;2023-07-20T06:13:37;101470.66;;;16.23
77418;BMP280;66490;51.484;0.026;2023-07-20T06:16:21;101501.66;;;16.43
77418;BMP280;66490;51.484;0.026;2023-07-20T06:19:05;101457.81;;;16.19
77418;BMP280;66490;51.484;0.026;2023-07-20T06:21:50;101499.28;;;16.48
77418;BMP280;66490;51.484;0.026;2023-07-20T06:24:34;101496.53;;;16.48
77418;BMP280;66490;51.484;0.026;2023-07-20T06:27:18;101458.53;;;16.31
77418;BMP280;66490;51.484;0.026;2023-07-20T06:30:02;101491.31;;;16.68
77418;BMP280;66490;51.484;0.026;2023-07-20T06:32:47;101462.56;;;16.64
77418;BMP280;66490;51.484;0.026;2023-07-20T06:35:31;101504.34;;;16.94
77418;BMP280;66490;51.484;0.026;2023-07-20T06:38:16;101480.13;;;17.00
77418;BMP280;66490;51.484;0.026;2023-07-20T06:41:00;101480.00;;;17.14
77418;BMP280;66490;51.484;0.026;2023-07-20T06:43:44;101500.88;;;17.31
77418;BMP280;66490;51.484;0.026;2023-07-20T06:46:28;101475.22;;;17.25
77418;BMP280;66490;51.484;0.026;2023-07-20T06:49:24;101498.81;;;17.39
77418;BMP280;66490;51.484;0.026;2023-07-20T06:52:09;101488.50;;;17.20
77418;BMP280;66490;51.484;0.026;2023-07-20T06:54:53;101489.41;;;17.10
77418;BMP280;66490;51.484;0.026;2023-07-20T06:57:37;101505.81;;;17.03
77418;BMP280;66490;51.484;0.026;2023-07-20T07:00:21;101509.72;;;17.02
77418;BMP280;66490;51.484;0.026;2023-07-20T07:03:05;101493.38;;;17.02
77418;BMP280;66490;51.484;0.026;2023-07-20T07:05:55;101485.63;;;16.96
77418;BMP280;66490;51.484;0.026;2023-07-20T07:08:39;101507.97;;;17.22
77418;BMP280;66490;51.484;0.026;2023-07-20T07:11:23;101482.25;;;17.23
77418;BMP280;66490;51.484;0.026;2023-07-20T07:14:15;101481.38;;;17.33
77418;BMP280;66490;51.484;0.026;2023-07-20T07:16:59;101480.53;;;17.36
77418;BMP280;66490;51.484;0.026;2023-07-20T07:19:44;101476.94;;;17.46
77418;BMP280;66490;51.484;0.026;2023-07-20T07:22:31;101482.13;;;17.67
77418;BMP280;66490;51.484;0.026;2023-07-20T07:25:15;101506.13;;;17.79
77418;BMP280;66490;51.484;0.026;2023-07-20T07:28:00;101509.41;;;17.98
77418;BMP280;66490;51.484;0.026;2023-07-20T07:30:44;101494.88;;;18.04
77418;BMP280;66490;51.484;0.026;2023-07-20T07:33:28;101522.88;;;18.39
77418;BMP280;66490;51.484;0.026;2023-07-20T07:36:12;101519.97;;;18.49
77418;BMP280;66490;51.484;0.026;2023-07-20T07:38:56;101510.81;;;18.59
77418;BMP280;66490;51.484;0.026;2023-07-20T07:41:41;101473.72;;;18.35
77418;BMP280;66490;51.484;0.026;2023-07-20T07:44:25;101500.66;;;18.60
77418;BMP280;66490;51.484;0.026;2023-07-20T07:47:09;101492.75;;;18.66
77418;BMP280;66490;51.484;0.026;2023-07-20T07:49:53;101506.72;;;18.94
77418;BMP280;66490;51.484;0.026;2023-07-20T07:52:38;101478.00;;;18.83
77418;BMP280;66490;51.484;0.026;2023-07-20T07:55:22;101472.19;;;18.81
77418;BMP280;66490;51.484;0.026;2023-07-20T07:58:06;101499.75;;;19.10
77418;BMP280;66490;51.484;0.026;2023-07-20T08:00:52;101466.31;;;19.02
77418;BMP280;66490;51.484;0.026;2023-07-20T08:03:37;101488.63;;;19.20
77418;BMP280;66490;51.484;0.026;2023-07-20T08:06:21;101489.31;;;19.24
77418;BMP280;66490;51.484;0.026;2023-07-20T08:09:07;101479.78;;;19.32
77418;BMP280;66490;51.484;0.026;2023-07-20T08:11:55;101483.16;;;19.20
77418;BMP280;66490;51.484;0.026;2023-07-20T08:14:41;101492.75;;;19.28
77418;BMP280;66490;51.484;0.026;2023-07-20T08:17:29;101480.16;;;19.34
77418;BMP280;66490;51.484;0.026;2023-07-20T08:20:17;101493.69;;;19.41
77418;BMP280;66490;51.484;0.026;2023-07-20T08:23:02;101496.28;;;19.49
77418;BMP280;66490;51.484;0.026;2023-07-20T08:25:53;101493.06;;;19.70
77418;BMP280;66490;51.484;0.026;2023-07-20T08:28:37;101486.34;;;19.74
77418;BMP280;66490;51.484;0.026;2023-07-20T08:31:22;101483.03;;;19.99
77418;BMP280;66490;51.484;0.026;2023-07-20T08:34:06;101481.84;;;20.00
77418;BMP280;66490;51.484;0.026;2023-07-20T08:36:50;101457.19;;;20.16
77418;BMP280;66490;51.484;0.026;2023-07-20T08:39:38;101485.53;;;20.42
77418;BMP280;66490;51.484;0.026;2023-07-20T08:42:22;101471.91;;;20.39
77418;BMP280;66490;51.484;0.026;2023-07-20T08:45:09;101459.41;;;20.38
77418;BMP280;66490;51.484;0.026;2023-07-20T08:47:55;101472.50;;;20.75
77418;BMP280;66490;51.484;0.026;2023-07-20T08:50:41;101475.63;;;20.61
77418;BMP280;66490;51.484;0.026;2023-07-20T08:53:27;101488.38;;;20.67
77418;BMP280;66490;51.484;0.026;2023-07-20T08:56:13;101484.53;;;20.49
77418;BMP280;66490;51.484;0.026;2023-07-20T08:58:58;101490.50;;;20.76
77418;BMP280;66490;51.484;0.026;2023-07-20T09:01:43;101483.66;;;21.26
77418;BMP280;66490;51.484;0.026;2023-07-20T09:04:28;101477.41;;;21.50
77418;BMP280;66490;51.484;0.026;2023-07-20T09:07:13;101472.38;;;21.62
77418;BMP280;66490;51.484;0.026;2023-07-20T09:09:58;101443.03;;;21.46
77418;BMP280;66490;51.484;0.026;2023-07-20T09:12:43;101459.28;;;21.53
77418;BMP280;66490;51.484;0.026;2023-07-20T09:15:29;101471.06;;;21.66
77418;BMP280;66490;51.484;0.026;2023-07-20T09:18:27;101478.63;;;21.87
77418;BMP280;66490;51.484;0.026;2023-07-20T09:21:11;101455.53;;;21.72
77418;BMP280;66490;51.484;0.026;2023-07-20T09:24:02;101474.50;;;22.17
77418;BMP280;66490;51.484;0.026;2023-07-20T09:26:48;101470.50;;;22.31
77418;BMP280;66490;51.484;0.026;2023-07-20T09:29:32;101478.28;;;22.45
77418;BMP280;66490;51.484;0.026;2023-07-20T09:32:20;101469.47;;;22.72
77418;BMP280;66490;51.484;0.026;2023-07-20T09:35:05;101441.41;;;23.08
77418;BMP280;66490;51.484;0.026;2023-07-20T09:37:59;101469.47;;;23.55
77418;BMP280;66490;51.484;0.026;2023-07-20T09:40:44;101454.94;;;23.64
77418;BMP280;66490;51.484;0.026;2023-07-20T09:43:29;101452.84;;;23.37
77418;BMP280;66490;51.484;0.026;2023-07-20T09:46:14;101457.13;;;23.29
77418;BMP280;66490;51.484;0.026;2023-07-20T09:49:01;101446.34;;;23.62
77418;BMP280;66490;51.484;0.026;2023-07-20T09:51:46;101442.50;;;23.50
77418;BMP280;66490;51.484;0.026;2023-07-20T09:54:30;101448.31;;;23.12
77418;BMP280;66490;51.484;0.026;2023-07-20T09:57:15;101431.44;;;22.58
77418;BMP280;66490;51.484;0.026;2023-07-20T10:00:00;101452.81;;;22.32
77418;BMP280;66490;51.484;0.026;2023-07-20T10:02:46;101442.97;;;21.96
77418;BMP280;66490;51.484;0.026;2023-07-20T10:05:39;101448.72;;;21.89
77418;BMP280;66490;51.484;0.026;2023-07-20T10:08:25;101417.72;;;22.02
77418;BMP280;66490;51.484;0.026;2023-07-20T10:11:15;101433.69;;;22.94
77418;BMP280;66490;51.484;0.026;2023-07-20T10:14:03;101427.94;;;23.50
77418;BMP280;66490;51.484;0.026;2023-07-20T10:16:58;101428.47;;;23.75
77418;BMP280;66490;51.484;0.026;2023-07-20T10:19:49;101425.91;;;24.36
77418;BMP280;66490;51.484;0.026;2023-07-20T10:22:36;101425.91;;;24.36
77418;BMP280;66490;51.484;0.026;2023-07-20T10:25:22;101412.56;;;24.16
77418;BMP280;66490;51.484;0.026;2023-07-20T10:28:07;101431.03;;;23.61
77418;BMP280;66490;51.484;0.026;2023-07-20T10:30:51;101427.56;;;23.97
77418;BMP280;66490;51.484;0.026;2023-07-20T10:33:37;101393.53;;;24.45
77418;BMP280;66490;51.484;0.026;2023-07-20T10:36:25;101407.31;;;24.63
77418;BMP280;66490;51.484;0.026;2023-07-20T10:39:31;101420.75;;;24.80
77418;BMP280;66490;51.484;0.026;2023-07-20T10:42:15;101415.28;;;24.61
77418;BMP280;66490;51.484;0.026;2023-07-20T10:45:00;101408.22;;;24.60
77418;BMP280;66490;51.484;0.026;2023-07-20T10:47:45;101416.16;;;24.77
77418;BMP280;66490;51.484;0.026;2023-07-20T10:50:30;101413.22;;;25.22
77418;BMP280;66490;51.484;0.026;2023-07-20T10:53:18;101409.97;;;25.95
77418;BMP280;66490;51.484;0.026;2023-07-20T10:56:13;101399.97;;;25.97
77418;BMP280;66490;51.484;0.026;2023-07-20T10:58:59;101406.53;;;26.00
77418;BMP280;66490;51.484;0.026;2023-07-20T11:01:47;101400.34;;;25.43
77418;BMP280;66490;51.484;0.026;2023-07-20T11:04:40;101394.69;;;24.81
77418;BMP280;66490;51.484;0.026;2023-07-20T11:07:38;101373.97;;;23.98
77418;BMP280;66490;51.484;0.026;2023-07-20T11:10:24;101391.72;;;23.78
77418;BMP280;66490;51.484;0.026;2023-07-20T11:13:22;101390.84;;;24.78
77418;BMP280;66490;51.484;0.026;2023-07-20T11:16:08;101382.34;;;25.24
77418;BMP280;66490;51.484;0.026;2023-07-20T11:18:52;101387.25;;;25.52
77418;BMP280;66490;51.484;0.026;2023-07-20T11:21:41;101367.50;;;24.37
77418;BMP280;66490;51.484;0.026;2023-07-20T11:24:25;101381.00;;;23.80
77418;BMP280;66490;51.484;0.026;2023-07-20T11:27:09;101362.66;;;23.19
77418;BMP280;66490;51.484;0.026;2023-07-20T11:29:53;101379.13;;;23.01
77418;BMP280;66490;51.484;0.026;2023-07-20T11:32:47;101373.03;;;24.01
77418;BMP280;66490;51.484;0.026;2023-07-20T11:35:35;101368.72;;;24.87
77418;BMP280;66490;51.484;0.026;2023-07-20T11:38:23;101377.59;;;25.86
77418;BMP280;66490;51.484;0.026;2023-07-20T11:41:08;101384.25;;;25.65
77418;BMP280;66490;51.484;0.026;2023-07-20T11:43:53;101367.06;;;24.81
77418;BMP280;66490;51.484;0.026;2023-07-20T11:46:41;101363.50;;;24.38
77418;BMP280;66490;51.484;0.026;2023-07-20T11:49:29;101381.16;;;24.04
77418;BMP280;66490;51.484;0.026;2023-07-20T11:52:15;101375.44;;;23.44
77418;BMP280;66490;51.484;0.026;2023-07-20T11:55:05;101379.00;;;23.14
77418;BMP280;66490;51.484;0.026;2023-07-20T11:58:05;101385.69;;;23.04
77418;BMP280;66490;51.484;0.026;2023-07-20T12:00:49;101362.88;;;23.34
77418;BMP280;66490;51.484;0.026;2023-07-20T12:03:34;101352.84;;;23.95
77418;BMP280;66490;51.484;0.026;2023-07-20T12:06:18;101364.44;;;24.08
77418;BMP280;66490;51.484;0.026;2023-07-20T12:09:16;101361.56;;;24.11
77418;BMP280;66490;51.484;0.026;2023-07-20T12:12:09;101328.00;;;23.76
77418;BMP280;66490;51.484;0.026;2023-07-20T12:14:54;101341.19;;;23.63
77418;BMP280;66490;51.484;0.026;2023-07-20T12:17:42;101344.47;;;23.31
77418;BMP280;66490;51.484;0.026;2023-07-20T12:20:30;101362.41;;;24.45
77418;BMP280;66490;51.484;0.026;2023-07-20T12:23:14;101323.50;;;25.32
77418;BMP280;66490;51.484;0.026;2023-07-20T12:26:01;101364.38;;;26.64
77418;BMP280;66490;51.484;0.026;2023-07-20T12:28:45;101337.84;;;27.12
77418;BMP280;66490;51.484;0.026;2023-07-20T12:31:29;101325.53;;;26.58
77418;BMP280;66490;51.484;0.026;2023-07-20T12:34:13;101331.59;;;25.59
77418;BMP280;66490;51.484;0.026;2023-07-20T12:36:57;101340.72;;;25.03
77418;BMP280;66490;51.484;0.026;2023-07-20T12:39:43;101339.78;;;26.36
77418;BMP280;66490;51.484;0.026;2023-07-20T12:42:30;101328.91;;;27.23
77418;BMP280;66490;51.484;0.026;2023-07-20T12:45:22;101328.94;;;27.48
77418;BMP280;66490;51.484;0.026;2023-07-20T12:48:06;101337.81;;;27.32
77418;BMP280;66490;51.484;0.026;2023-07-20T12:50:51;101315.91;;;26.94
77418;BMP280;66490;51.484;0.026;2023-07-20T12:53:36;101305.91;;;25.44
77418;BMP280;66490;51.484;0.026;2023-07-20T12:56:20;101315.50;;;24.87
77418;BMP280;66490;51.484;0.026;2023-07-20T12:59:06;101312.25;;;24.55
77418;BMP280;66490;51.484;0.026;2023-07-20T13:01:50;101320.75;;;24.34
77418;BMP280;66490;51.484;0.026;2023-07-20T13:04:35;101305.03;;;24.07
77418;BMP280;66490;51.484;0.026;2023-07-20T13:07:32;101302.84;;;24.20
77418;BMP280;66490;51.484;0.026;2023-07-20T13:10:16;101315.34;;;24.39
77418;BMP280;66490;51.484;0.026;2023-07-20T13:13:02;101310.84;;;24.18
77418;BMP280;66490;51.484;0.026;2023-07-20T13:15:46;101299.38;;;24.94
77418;BMP280;66490;51.484;0.026;2023-07-20T13:18:30;101299.81;;;25.79
77418;BMP280;66490;51.484;0.026;2023-07-20T13:21:16;101300.16;;;26.30
77418;BMP280;66490;51.484;0.026;2023-07-20T13:24:00;101293.44;;;27.06
77418;BMP280;66490;51.484;0.026;2023-07-20T13:26:44;101305.06;;;27.31
77418;BMP280;66490;51.484;0.026;2023-07-20T13:29:28;101286.97;;;26.40
77418;BMP280;66490;51.484;0.026;2023-07-20T13:32:13;101302.09;;;25.95
77418;BMP280;66490;51.484;0.026;2023-07-20T13:35:02;101309.09;;;25.28
77418;BMP280;66490;51.484;0.026;2023-07-20T13:37:46;101263.44;;;24.70
77418;BMP280;66490;51.484;0.026;2023-07-20T13:40:30;101284.97;;;24.48
77418;BMP280;66490;51.484;0.026;2023-07-20T13:43:14;101273.13;;;24.15
77418;BMP280;66490;51.484;0.026;2023-07-20T13:45:58;101267.81;;;23.93
77418;BMP280;66490;51.484;0.026;2023-07-20T13:48:42;101281.53;;;25.19
77418;BMP280;66490;51.484;0.026;2023-07-20T13:51:28;101299.41;;;26.00
77418;BMP280;66490;51.484;0.026;2023-07-20T13:54:12;101281.66;;;26.36
77418;BMP280;66490;51.484;0.026;2023-07-20T13:56:56;101294.63;;;26.80
77418;BMP280;66490;51.484;0.026;2023-07-20T13:59:41;101278.38;;;27.85
77418;BMP280;66490;51.484;0.026;2023-07-20T14:02:25;101268.97;;;28.08
77418;BMP280;66490;51.484;0.026;2023-07-20T14:05:09;101272.06;;;27.58
77418;BMP280;66490;51.484;0.026;2023-07-20T14:07:54;101272.25;;;27.49
77418;BMP280;66490;51.484;0.026;2023-07-20T14:10:41;101243.03;;;27.02
77418;BMP280;66490;51.484;0.026;2023-07-20T14:13:25;101262.19;;;26.86
77418;BMP280;66490;51.484;0.026;2023-07-20T14:16:09;101272.56;;;27.11
77418;BMP280;66490;51.484;0.026;2023-07-20T14:18:54;101268.38;;;27.41
77418;BMP280;66490;51.484;0.026;2023-07-20T14:21:38;101236.84;;;27.65
77418;BMP280;66490;51.484;0.026;2023-07-20T14:24:22;101266.63;;;27.70
77418;BMP280;66490;51.484;0.026;2023-07-20T14:27:06;101246.69;;;26.74
77418;BMP280;66490;51.484;0.026;2023-07-20T14:29:50;101254.31;;;26.99
77418;BMP280;66490;51.484;0.026;2023-07-20T14:32:34;101244.69;;;27.40
77418;BMP280;66490;51.484;0.026;2023-07-20T14:35:18;101245.22;;;27.44
77418;BMP280;66490;51.484;0.026;2023-07-20T14:38:03;101247.38;;;27.35
77418;BMP280;66490;51.484;0.026;2023-07-20T14:40:50;101250.94;;;28.29
77418;BMP280;66490;51.484;0.026;2023-07-20T14:43:35;101247.03;;;29.67
77418;BMP280;66490;51.484;0.026;2023-07-20T14:46:22;101252.75;;;30.93
77418;BMP280;66490;51.484;0.026;2023-07-20T14:49:08;101241.09;;;30.37
77418;BMP280;66490;51.484;0.026;2023-07-20T14:51:55;101230.34;;;29.39
77418;BMP280;66490;51.484;0.026;2023-07-20T14:54:42;101237.94;;;29.44
77418;BMP280;66490;51.484;0.026;2023-07-20T14:57:26;101222.25;;;28.43
77418;BMP280;66490;51.484;0.026;2023-07-20T15:00:11;101231.59;;;28.03
77418;BMP280;66490;51.484;0.026;2023-07-20T15:02:55;101204.25;;;27.28
77418;BMP280;66490;51.484;0.026;2023-07-20T15:05:42;101239.56;;;27.33
77418;BMP280;66490;51.484;0.026;2023-07-20T15:08:26;101240.50;;;28.19
77418;BMP280;66490;51.484;0.026;2023-07-20T15:11:15;101220.09;;;28.70
77418;BMP280;66490;51.484;0.026;2023-07-20T15:13:59;101197.91;;;27.85
77418;BMP280;66490;51.484;0.026;2023-07-20T15:16:43;101193.81;;;27.43
77418;BMP280;66490;51.484;0.026;2023-07-20T15:19:33;101232.22;;;26.84
77418;BMP280;66490;51.484;0.026;2023-07-20T15:22:18;101226.13;;;26.25
77418;BMP280;66490;51.484;0.026;2023-07-20T15:25:03;101199.63;;;26.04
77418;BMP280;66490;51.484;0.026;2023-07-20T15:27:47;101215.66;;;26.00
77418;BMP280;66490;51.484;0.026;2023-07-20T15:30:32;101211.47;;;25.60
77418;BMP280;66490;51.484;0.026;2023-07-20T15:33:16;101199.34;;;25.43
77418;BMP280;66490;51.484;0.026;2023-07-20T15:36:04;101211.09;;;25.38
77418;BMP280;66490;51.484;0.026;2023-07-20T15:38:50;101205.47;;;25.09
77418;BMP280;66490;51.484;0.026;2023-07-20T15:41:34;101203.28;;;24.75
77418;BMP280;66490;51.484;0.026;2023-07-20T15:44:19;101211.38;;;24.78
77418;BMP280;66490;51.484;0.026;2023-07-20T15:47:03;101202.16;;;25.05
77418;BMP280;66490;51.484;0.026;2023-07-20T15:49:47;101180.91;;;26.13